Time;durP1;ratioP1;P1;durP2;ratioP2;P2;SDS_P1;SDS_P2;PMS_P1;PMS_P2;Temp;Humidity;BMP_temperature;BMP_pressure;BME280_temperature;BME280_humidity;BME280_pressure;Samples;Min_cycle;Max_cycle;Signal;HPM_P1;HPM_P2
2023/08/12 00:02:18;;;;;;;6.28;3.17;;;;;;;19.76;100.00;96938.16;5030080;28;20247;-61
2023/08/12 00:04:46;;;;;;;4.32;3.55;;;;;;;19.76;100.00;96944.34;5040718;28;20210;-61
2023/08/12 00:07:14;;;;;;;4.35;3.80;;;;;;;19.75;100.00;96936.47;5040680;28;20236;-61
2023/08/12 00:09:41;;;;;;;3.72;3.42;;;;;;;19.74;100.00;96942.84;5039359;28;20207;-62
2023/08/12 00:12:07;;;;;;;6.40;3.58;;;;;;;19.73;100.00;96941.22;5040199;28;20211;-62
2023/08/12 00:14:34;;;;;;;4.10;3.80;;;;;;;19.72;100.00;96942.22;5039183;28;20561;-61
2023/08/12 00:17:02;;;;;;;4.13;3.75;;;;;;;19.70;100.00;96939.72;5039947;28;20204;-60
2023/08/12 00:19:30;;;;;;;4.70;3.40;;;;;;;19.71;100.00;96936.03;5040775;28;20199;-61
2023/08/12 00:21:56;;;;;;;7.40;3.78;;;;;;;19.66;100.00;96938.44;5031116;28;20193;-62
2023/08/12 00:24:23;;;;;;;4.07;3.20;;;;;;;19.66;100.00;96933.06;5036258;28;20591;-61
2023/08/12 00:26:51;;;;;;;5.35;3.63;;;;;;;19.68;100.00;96941.78;5040125;28;20215;-61
2023/08/12 00:29:19;;;;;;;4.15;3.60;;;;;;;19.67;100.00;96940.13;5040700;28;20222;-60
2023/08/12 00:31:46;;;;;;;5.15;3.95;;;;;;;19.67;100.00;96934.75;5043340;28;20199;-60
2023/08/12 00:34:12;;;;;;;5.32;3.70;;;;;;;19.66;100.00;96933.06;5038625;28;20200;-62
2023/08/12 00:36:40;;;;;;;4.10;3.70;;;;;;;19.65;100.00;96928.75;5028864;28;20631;-61
2023/08/12 00:39:08;;;;;;;4.43;3.95;;;;;;;19.66;100.00;96933.06;5015760;28;20200;-60
2023/08/12 00:41:34;;;;;;;5.63;3.80;;;;;;;19.65;100.00;96934.13;5021750;28;20447;-61
2023/08/12 00:44:02;;;;;;;6.57;3.95;;;;;;;19.62;100.00;96931.00;5021693;28;20208;-61
2023/08/12 00:46:29;;;;;;;6.03;3.85;;;;;;;19.61;100.00;96935.53;5032868;28;20545;-61
2023/08/12 00:48:55;;;;;;;4.35;3.50;;;;;;;19.63;100.00;96932.63;5035930;28;20215;-61
2023/08/12 00:51:22;;;;;;;4.57;4.18;;;;;;;19.64;100.00;96921.72;5028076;28;20633;-61
2023/08/12 00:53:51;;;;;;;3.55;3.35;;;;;;;19.65;100.00;96919.88;5028558;28;20207;-59
2023/08/12 00:56:21;;;;;;;3.80;3.53;;;;;;;19.66;100.00;96926.91;5028513;28;20216;-60
2023/08/12 00:58:47;;;;;;;4.32;3.92;;;;;;;19.65;100.00;96920.72;5017311;28;20208;-61
2023/08/12 01:01:14;;;;;;;4.07;3.50;;;;;;;19.65;100.00;96923.38;5027945;28;20224;-62
2023/08/12 01:03:40;;;;;;;4.20;3.80;;;;;;;19.69;100.00;96930.03;5037462;28;20227;-62
2023/08/12 01:06:07;;;;;;;4.43;3.90;;;;;;;19.68;100.00;96922.16;5041741;28;20224;-61
2023/08/12 01:08:35;;;;;;;5.38;3.97;;;;;;;19.66;100.00;96919.66;5031721;28;20200;-62
2023/08/12 01:11:08;;;;;;;4.07;3.63;;;;;;;19.66;100.00;96933.06;5030988;28;20201;-61
2023/08/12 01:13:40;;;;;;;4.20;3.90;;;;;;;19.60;100.00;96922.28;5032883;28;20299;-62
2023/08/12 01:16:09;;;;;;;4.30;3.90;;;;;;;19.60;100.00;96916.94;5044282;28;20196;-63
2023/08/12 01:18:36;;;;;;;5.75;3.80;;;;;;;19.60;100.00;96917.75;5049366;28;20208;-61
2023/08/12 01:21:03;;;;;;;4.13;3.83;;;;;;;19.56;100.00;96911.13;5038597;28;20239;-62
2023/08/12 01:23:31;;;;;;;4.22;3.92;;;;;;;19.61;100.00;96916.75;5034096;28;20203;-62
2023/08/12 01:25:59;;;;;;;5.80;3.90;;;;;;;19.56;100.00;96911.13;5036121;28;20534;-62
2023/08/12 01:28:28;;;;;;;4.45;4.05;;;;;;;19.58;100.00;96900.19;5016177;28;20227;-61
2023/08/12 01:30:58;;;;;;;5.13;3.60;;;;;;;19.56;100.00;96905.75;5027984;28;20197;-60
2023/08/12 01:33:29;;;;;;;4.05;3.53;;;;;;;19.57;100.00;96907.41;5022323;28;20204;-60
2023/08/12 01:36:01;;;;;;;4.10;3.70;;;;;;;19.57;100.00;96898.53;5016391;28;20232;-61
2023/08/12 01:38:30;;;;;;;3.80;3.50;;;;;;;19.59;100.00;96905.34;5031447;28;20257;-62
2023/08/12 01:40:57;;;;;;;4.25;3.85;;;;;;;19.62;100.00;96902.31;5015954;28;20228;-61
2023/08/12 01:43:24;;;;;;;4.07;3.78;;;;;;;19.63;100.00;96897.75;5026101;28;20212;-61
2023/08/12 01:45:50;;;;;;;4.35;3.83;;;;;;;19.62;100.00;96899.63;5017632;28;20208;-61
2023/08/12 01:48:19;;;;;;;4.30;3.97;;;;;;;19.64;100.00;96902.94;5022305;28;20219;-62
2023/08/12 01:50:47;;;;;;;4.00;3.70;;;;;;;19.63;100.00;96905.81;5016175;28;20208;-62
2023/08/12 01:53:14;;;;;;;4.28;3.97;;;;;;;19.61;100.00;96903.34;5018525;28;20278;-61
2023/08/12 01:55:44;;;;;;;4.97;3.90;;;;;;;19.67;100.00;96909.75;5016773;28;20208;-62
2023/08/12 01:58:11;;;;;;;4.43;3.85;;;;;;;19.68;100.00;96898.84;5026385;28;20191;-62
2023/08/12 02:00:37;;;;;;;5.68;3.58;;;;;;;19.69;100.00;96911.25;5021774;28;20228;-61
2023/08/12 02:03:04;;;;;;;4.30;3.90;;;;;;;19.69;100.00;96900.53;5029880;28;20263;-62
2023/08/12 02:05:31;;;;;;;5.93;3.90;;;;;;;19.71;100.00;96911.03;5039280;28;20276;-62
2023/08/12 02:07:58;;;;;;;3.72;3.42;;;;;;;19.68;100.00;96898.84;5030639;28;20223;-62
2023/08/12 02:10:25;;;;;;;4.05;3.75;;;;;;;19.70;100.00;96904.84;5038642;28;20201;-62
2023/08/12 02:12:52;;;;;;;6.40;3.67;;;;;;;19.69;100.00;96894.31;5028871;28;20204;-61
2023/08/12 02:15:19;;;;;;;4.25;3.95;;;;;;;19.66;100.00;96892.84;5035508;28;20207;-61
2023/08/12 02:17:45;;;;;;;3.95;3.65;;;;;;;19.66;100.00;96887.47;5040729;28;20212;-62
2023/08/12 02:20:12;;;;;;;4.43;3.75;;;;;;;19.60;100.00;96885.56;5034416;28;20208;-63
2023/08/12 02:22:38;;;;;;;4.25;3.80;;;;;;;19.62;100.00;96886.22;5044149;28;20231;-62
2023/08/12 02:25:05;;;;;;;4.38;3.97;;;;;;;19.62;100.00;96896.13;5049684;28;20621;-62
2023/08/12 02:27:31;;;;;;;5.45;4.20;;;;;;;19.58;100.00;96893.00;5034323;28;20199;-62
2023/08/12 02:29:59;;;;;;;7.10;4.25;;;;;;;19.57;100.00;96885.94;5048341;28;20239;-62
2023/08/12 02:32:26;;;;;;;4.18;3.85;;;;;;;19.53;100.00;96895.41;5042044;28;20200;-62
2023/08/12 02:34:53;;;;;;;4.07;3.78;;;;;;;19.54;100.00;96885.50;5054090;28;20188;-61
2023/08/12 02:37:21;;;;;;;4.03;3.72;;;;;;;19.54;100.00;96886.34;5026457;28;20270;-61
2023/08/12 02:39:48;;;;;;;5.80;4.50;;;;;;;19.52;100.00;96887.56;5016704;28;20242;-61
2023/08/12 02:42:14;;;;;;;3.95;3.65;;;;;;;19.51;100.00;96892.09;5026891;28;20683;-60
2023/08/12 02:44:41;;;;;;;3.97;3.58;;;;;;;19.51;100.00;96893.94;5029378;28;20204;-61
2023/08/12 02:47:09;;;;;;;4.18;3.78;;;;;;;19.46;100.00;96889.16;5020548;28;20208;-61
2023/08/12 02:49:35;;;;;;;4.47;3.90;;;;;;;19.47;100.00;96881.94;5015616;28;20204;-61
2023/08/12 02:52:04;;;;;;;5.03;3.90;;;;;;;19.46;100.00;96893.69;5015145;28;20217;-60
2023/08/12 02:54:30;;;;;;;4.20;3.80;;;;;;;19.45;100.00;96898.22;5020924;28;20203;-61
2023/08/12 02:56:56;;;;;;;5.20;4.70;;;;;;;19.44;100.00;96890.38;5034294;28;20218;-62
2023/08/12 02:59:24;;;;;;;5.15;4.25;;;;;;;19.40;100.00;96892.56;5015445;28;20216;-61
2023/08/12 03:01:52;;;;;;;4.28;3.55;;;;;;;19.40;100.00;96892.56;5027435;28;20325;-61
2023/08/12 03:04:20;;;;;;;4.45;3.95;;;;;;;19.40;100.00;96884.53;5005720;28;20208;-61
2023/08/12 03:06:47;;;;;;;4.60;4.20;;;;;;;19.38;100.00;96886.56;5019246;28;20208;-61
2023/08/12 03:09:13;;;;;;;4.13;3.70;;;;;;;19.37;100.00;96887.59;5018815;28;20207;-62
2023/08/12 03:11:40;;;;;;;4.32;3.97;;;;;;;19.35;100.00;96885.09;5024552;28;20226;-60
2023/08/12 03:14:06;;;;;;;5.47;4.28;;;;;;;19.38;100.00;96881.19;5048007;28;20212;-61
2023/08/12 03:16:35;;;;;;;4.20;3.80;;;;;;;19.36;100.00;96886.78;5038348;28;20270;-61
2023/08/12 03:19:01;;;;;;;4.63;4.20;;;;;;;19.36;100.00;96872.53;5023498;28;20216;-61
2023/08/12 03:21:29;;;;;;;4.68;4.03;;;;;;;19.33;100.00;96876.44;5027540;28;20274;-62
2023/08/12 03:23:57;;;;;;;4.57;3.80;;;;;;;19.36;100.00;96870.69;5026488;28;20204;-60
2023/08/12 03:26:23;;;;;;;4.85;4.20;;;;;;;19.36;100.00;96868.00;5017884;28;20251;-61
2023/08/12 03:28:51;;;;;;;4.22;3.92;;;;;;;19.38;100.00;96870.47;5020471;28;20628;-61
2023/08/12 03:31:18;;;;;;;4.18;3.83;;;;;;;19.38;100.00;96870.47;5044553;28;20624;-62
2023/08/12 03:33:44;;;;;;;6.03;4.30;;;;;;;19.38;100.00;96865.09;5037678;28;20224;-62
2023/08/12 03:36:10;;;;;;;5.90;4.40;;;;;;;19.39;100.00;96867.59;5027061;28;20295;-61
2023/08/12 03:38:38;;;;;;;6.28;4.18;;;;;;;19.41;100.00;96871.97;5022379;28;20235;-60
2023/08/12 03:41:05;;;;;;;4.20;3.90;;;;;;;19.39;100.00;96867.59;5028890;28;20232;-62
2023/08/12 03:43:33;;;;;;;4.90;4.50;;;;;;;19.37;100.00;96882.25;5024460;28;20208;-61
2023/08/12 03:45:59;;;;;;;4.28;3.97;;;;;;;19.41;100.00;96872.81;5016305;28;20222;-61
2023/08/12 03:48:26;;;;;;;4.40;4.03;;;;;;;19.40;100.00;96879.16;5032725;28;20522;-61
2023/08/12 03:50:52;;;;;;;4.60;4.30;;;;;;;19.41;100.00;96870.13;5017545;28;20223;-61
2023/08/12 03:53:19;;;;;;;4.47;4.13;;;;;;;19.38;100.00;96882.03;5014156;28;20537;-61
2023/08/12 03:55:46;;;;;;;6.72;4.25;;;;;;;19.42;100.00;96887.03;5038294;28;20215;-62
2023/08/12 03:58:13;;;;;;;4.90;4.47;;;;;;;19.38;100.00;96894.59;5028753;28;20227;-61
2023/08/12 04:00:42;;;;;;;4.65;4.25;;;;;;;19.37;100.00;96893.81;5019375;28;20236;-61
2023/08/12 04:03:08;;;;;;;4.20;3.83;;;;;;;19.40;100.00;96889.91;5024930;28;20365;-62
2023/08/12 04:05:35;;;;;;;4.55;4.15;;;;;;;19.45;100.00;96887.47;5016603;28;20208;-62
2023/08/12 04:08:01;;;;;;;4.93;4.35;;;;;;;19.47;100.00;96880.09;5018374;28;20209;-61
2023/08/12 04:10:28;;;;;;;6.57;4.53;;;;;;;19.45;100.00;96879.44;5026373;28;20231;-61
2023/08/12 04:12:58;;;;;;;4.95;4.35;;;;;;;19.48;100.00;96881.75;5017811;28;20215;-61
2023/08/12 04:15:26;;;;;;;4.47;4.05;;;;;;;19.50;100.00;96874.34;5031334;28;20270;-62
2023/08/12 04:17:53;;;;;;;4.38;4.07;;;;;;;19.52;100.00;96884.88;5030408;28;20204;-60
2023/08/12 04:20:20;;;;;;;4.80;4.40;;;;;;;19.52;100.00;96877.63;5031556;28;20208;-60
2023/08/12 04:22:46;;;;;;;4.75;4.32;;;;;;;19.55;100.00;96881.81;5036032;28;20234;-61
2023/08/12 04:25:13;;;;;;;5.10;4.60;;;;;;;19.55;100.00;96879.97;5030959;28;20208;-61
2023/08/12 04:27:39;;;;;;;4.55;4.13;;;;;;;19.58;100.00;96876.88;5017355;28;20208;-61
2023/08/12 04:30:09;;;;;;;4.53;4.13;;;;;;;19.59;100.00;96875.03;5026580;28;20200;-61
2023/08/12 04:32:35;;;;;;;4.90;4.40;;;;;;;19.57;100.00;96885.13;5030436;28;20691;-60
2023/08/12 04:35:03;;;;;;;5.13;4.15;;;;;;;19.59;100.00;96878.53;5005770;28;20267;-62
2023/08/12 04:37:32;;;;;;;5.32;3.97;;;;;;;19.60;100.00;96876.69;5031402;28;20620;-62
2023/08/12 04:39:58;;;;;;;4.97;4.50;;;;;;;19.60;100.00;96882.88;5017522;28;20216;-62
2023/08/12 04:42:25;;;;;;;4.32;3.97;;;;;;;19.61;100.00;96879.19;5017655;28;20232;-61
2023/08/12 04:44:51;;;;;;;4.22;3.92;;;;;;;19.61;100.00;96887.22;5029870;28;20219;-63
2023/08/12 04:47:19;;;;;;;4.72;4.40;;;;;;;19.64;100.00;96889.53;5018030;28;20220;-62
2023/08/12 04:49:47;;;;;;;4.55;4.18;;;;;;;19.61;100.00;96881.88;5026002;28;20236;-61
2023/08/12 04:52:13;;;;;;;4.85;4.38;;;;;;;19.63;100.00;96890.53;5030393;28;20211;-60
2023/08/12 04:54:41;;;;;;;4.70;4.30;;;;;;;19.65;100.00;96883.16;5017584;28;20212;-61
2023/08/12 04:57:07;;;;;;;5.00;4.10;;;;;;;19.70;100.00;96890.59;5016866;28;20216;-62
2023/08/12 04:59:34;;;;;;;4.35;4.05;;;;;;;19.73;100.00;96887.53;5017212;28;20223;-61
2023/08/12 05:02:01;;;;;;;5.10;4.00;;;;;;;19.74;100.00;96881.13;5027846;28;20227;-61
2023/08/12 05:04:29;;;;;;;4.40;4.00;;;;;;;19.76;100.00;96879.94;5036529;28;20200;-61
2023/08/12 05:06:55;;;;;;;4.40;4.10;;;;;;;19.81;100.00;96885.53;5023196;28;20212;-62
2023/08/12 05:09:22;;;;;;;5.35;4.18;;;;;;;19.88;100.00;96878.34;5036915;28;20693;-61
2023/08/12 05:11:48;;;;;;;4.78;4.38;;;;;;;19.96;100.00;96879.25;5032482;28;20916;-61
2023/08/12 05:14:15;;;;;;;4.68;4.38;;;;;;;20.05;100.00;96881.56;5027079;28;20211;-61
2023/08/12 05:16:41;;;;;;;4.40;4.10;;;;;;;20.11;100.00;96882.66;5019764;28;20212;-61
2023/08/12 05:19:07;;;;;;;4.35;4.05;;;;;;;20.14;100.00;96887.63;5037575;28;20559;-62
2023/08/12 05:21:35;;;;;;;4.78;4.45;;;;;;;20.16;100.00;96891.78;5026754;28;20227;-61
2023/08/12 05:24:02;;;;;;;4.78;4.38;;;;;;;20.18;100.00;96883.53;5035843;28;20644;-61
2023/08/12 05:26:29;;;;;;;5.70;4.50;;;;;;;20.22;100.00;96879.44;5018861;28;20219;-62
2023/08/12 05:28:55;;;;;;;4.65;4.25;;;;;;;20.20;100.00;96871.56;5016739;28;20223;-61
2023/08/12 05:31:22;;;;;;;4.18;3.92;;;;;;;20.24;100.00;96877.34;5032849;28;20216;-61
2023/08/12 05:33:50;;;;;;;4.53;4.20;;;;;;;20.23;100.00;96879.22;5032573;28;20231;-61
2023/08/12 05:36:17;;;;;;;4.70;4.30;;;;;;;20.26;100.00;96884.19;5029915;28;20208;-60
2023/08/12 05:38:45;;;;;;;4.75;4.43;;;;;;;20.28;100.00;96886.72;5026764;28;20277;-61
2023/08/12 05:41:11;;;;;;;4.60;4.30;;;;;;;20.30;100.00;96876.59;5022572;28;20204;-62
2023/08/12 05:43:38;;;;;;;5.50;5.00;;;;;;;20.32;100.00;96879.94;5025039;28;20204;-61
2023/08/12 05:46:04;;;;;;;5.20;4.80;;;;;;;20.34;100.00;96885.91;5016229;28;20548;-61
2023/08/12 05:48:31;;;;;;;4.90;4.50;;;;;;;20.38;100.00;96875.59;5026616;28;20199;-61
2023/08/12 05:50:57;;;;;;;4.93;4.57;;;;;;;20.42;100.00;96885.75;5026666;28;20209;-62
2023/08/12 05:53:24;;;;;;;5.03;4.68;;;;;;;20.45;100.00;96889.91;5016233;28;20572;-61
2023/08/12 05:55:52;;;;;;;4.90;4.60;;;;;;;20.51;100.00;96889.13;5015878;28;20288;-61
2023/08/12 05:58:18;;;;;;;4.68;4.38;;;;;;;20.54;100.00;96889.56;5019268;28;20647;-61
2023/08/12 06:00:46;;;;;;;5.07;4.65;;;;;;;20.56;100.00;96890.19;5028185;28;20541;-61
2023/08/12 06:03:12;;;;;;;5.28;4.70;;;;;;;20.61;100.00;96884.22;5024981;28;20255;-61
2023/08/12 06:05:40;;;;;;;4.65;4.35;;;;;;;20.66;100.00;96892.50;5024524;28;20254;-61
2023/08/12 06:08:06;;;;;;;4.72;4.35;;;;;;;20.65;100.00;96896.22;5021380;28;20638;-61
2023/08/12 06:10:34;;;;;;;5.53;5.03;;;;;;;20.62;100.00;96881.31;5025855;28;20232;-61
2023/08/12 06:13:02;;;;;;;4.97;4.57;;;;;;;20.62;100.00;96886.69;5028615;28;20535;-61
2023/08/12 06:15:28;;;;;;;4.72;4.30;;;;;;;20.62;100.00;96891.22;5022428;28;20208;-61
2023/08/12 06:17:54;;;;;;;5.43;4.93;;;;;;;20.76;100.00;96896.47;5033507;28;20211;-61
2023/08/12 06:20:21;;;;;;;5.43;5.03;;;;;;;21.09;100.00;96898.44;5029671;28;20203;-61
2023/08/12 06:22:47;;;;;;;5.28;4.75;;;;;;;21.41;100.00;96895.03;5035023;28;20560;-60
2023/08/12 06:25:14;;;;;;;6.05;5.20;;;;;;;21.79;100.00;96892.56;5041299;28;20208;-62
2023/08/12 06:27:40;;;;;;;5.15;4.70;;;;;;;22.10;100.00;96895.53;5014566;28;20243;-62
2023/08/12 06:30:10;;;;;;;5.20;4.80;;;;;;;22.42;100.00;96896.50;5022176;28;20644;-61
2023/08/12 06:32:36;;;;;;;4.80;4.40;;;;;;;22.62;100.00;96891.88;5034274;28;20290;-61
2023/08/12 06:35:03;;;;;;;5.22;4.78;;;;;;;22.77;100.00;96889.78;5020854;28;20204;-62
2023/08/12 06:37:29;;;;;;;4.63;4.30;;;;;;;22.95;100.00;96885.56;5016621;28;20200;-61
2023/08/12 06:39:56;;;;;;;4.57;4.18;;;;;;;23.06;100.00;96885.69;5027186;28;20757;-62
2023/08/12 06:42:22;;;;;;;4.85;4.55;;;;;;;23.08;100.00;96886.31;5014964;28;20235;-62
2023/08/12 06:44:55;;;;;;;5.45;4.40;;;;;;;23.18;100.00;96885.84;5025334;28;20207;-62
2023/08/12 06:47:23;;;;;;;4.85;4.45;;;;;;;23.36;100.00;96882.41;5021993;28;20250;-62
2023/08/12 06:49:49;;;;;;;4.65;4.32;;;;;;;23.67;100.00;96891.38;5025597;28;20640;-61
2023/08/12 06:52:16;;;;;;;4.90;4.47;;;;;;;23.96;100.00;96894.47;5028377;28;20211;-62
2023/08/12 06:54:43;;;;;;;5.13;4.50;;;;;;;24.23;100.00;96891.34;5024241;28;20207;-62
2023/08/12 06:57:12;;;;;;;5.38;4.07;;;;;;;24.60;100.00;96897.63;5021018;28;20625;-61
2023/08/12 06:59:38;;;;;;;4.72;4.32;;;;;;;24.79;97.81;96895.75;5025882;28;20219;-62
2023/08/12 07:02:05;;;;;;;4.68;4.28;;;;;;;24.75;98.19;96900.78;5026830;28;20254;-63
2023/08/12 07:04:33;;;;;;;4.57;4.28;;;;;;;24.78;97.83;96900.34;5037955;28;20204;-62
2023/08/12 07:07:00;;;;;;;5.07;4.70;;;;;;;24.89;98.15;96898.78;5028684;28;20559;-62
2023/08/12 07:09:26;;;;;;;5.88;4.50;;;;;;;25.07;98.20;96895.22;5030166;28;20238;-61
2023/08/12 07:11:53;;;;;;;5.63;4.75;;;;;;;25.17;95.83;96904.47;5034106;28;20265;-61
2023/08/12 07:14:22;;;;;;;5.00;4.60;;;;;;;25.13;95.60;96891.59;5024315;28;20220;-60
2023/08/12 07:16:48;;;;;;;5.15;4.22;;;;;;;25.04;95.68;96896.50;5019824;28;20291;-62
2023/08/12 07:19:15;;;;;;;5.07;4.22;;;;;;;24.88;96.20;96899.00;5038600;28;20277;-62
2023/08/12 07:21:43;;;;;;;4.93;4.10;;;;;;;24.73;97.17;96905.56;5020981;28;20239;-62
2023/08/12 07:24:09;;;;;;;4.43;4.05;;;;;;;24.65;97.44;96905.91;5027998;28;20203;-62
2023/08/12 07:26:36;;;;;;;4.78;4.38;;;;;;;24.51;99.40;96904.38;5015735;28;20701;-61
2023/08/12 07:29:02;;;;;;;4.80;4.40;;;;;;;24.34;100.00;96897.09;5026339;28;20207;-63
2023/08/12 07:31:29;;;;;;;4.50;4.10;;;;;;;24.22;100.00;96894.28;5033983;28;20208;-61
2023/08/12 07:33:55;;;;;;;4.68;4.28;;;;;;;24.09;100.00;96897.09;5032376;28;20196;-62
2023/08/12 07:36:22;;;;;;;6.80;4.68;;;;;;;24.03;100.00;96900.66;5027410;28;20204;-62
2023/08/12 07:38:50;;;;;;;5.40;4.43;;;;;;;23.95;100.00;96899.03;5014553;28;20698;-61
2023/08/12 07:41:16;;;;;;;5.38;4.18;;;;;;;23.92;100.00;96904.06;5026955;28;20204;-62
2023/08/12 07:43:42;;;;;;;5.78;4.25;;;;;;;23.89;100.00;96896.41;5018019;28;20315;-62
2023/08/12 07:46:09;;;;;;;4.63;4.22;;;;;;;23.79;100.00;96896.91;5023331;28;20208;-62
2023/08/12 07:48:35;;;;;;;5.30;4.47;;;;;;;23.73;100.00;96900.50;5031070;28;20208;-62
2023/08/12 07:51:03;;;;;;;4.82;4.15;;;;;;;23.73;100.00;96906.72;5019318;28;20227;-62
2023/08/12 07:53:30;;;;;;;4.85;4.50;;;;;;;23.72;100.00;96898.81;5030526;28;20207;-61
2023/08/12 07:55:58;;;;;;;4.63;4.32;;;;;;;23.69;100.00;96893.88;5019530;28;20612;-62
2023/08/12 07:58:24;;;;;;;4.78;4.38;;;;;;;23.70;100.00;96896.34;5023160;28;20211;-61
2023/08/12 08:00:58;;;;;;;4.20;3.90;;;;;;;23.79;100.00;96903.13;5024746;28;20211;-62
2023/08/12 08:03:26;;;;;;;5.32;4.88;;;;;;;24.04;100.00;96895.03;5025158;28;20266;-62
2023/08/12 08:05:53;;;;;;;4.68;4.38;;;;;;;24.36;100.00;96895.81;5017478;28;20518;-62
2023/08/12 08:08:20;;;;;;;4.63;4.30;;;;;;;24.58;100.00;96901.59;5019367;28;20267;-63
2023/08/12 08:10:46;;;;;;;4.35;4.05;;;;;;;24.97;100.00;96892.25;5037834;28;20250;-62
2023/08/12 08:13:14;;;;;;;4.57;4.28;;;;;;;25.15;100.00;96895.72;5024161;28;20223;-62
2023/08/12 08:15:41;;;;;;;4.78;4.38;;;;;;;25.37;97.62;96900.63;5029027;28;20212;-62
2023/08/12 08:18:07;;;;;;;5.13;4.25;;;;;;;25.69;97.99;96908.31;5036702;28;20242;-62
2023/08/12 08:20:35;;;;;;;4.55;4.15;;;;;;;25.99;94.95;96919.13;5028903;28;20209;-62
2023/08/12 08:23:01;;;;;;;5.07;4.68;;;;;;;26.30;93.19;96920.69;5031664;28;20690;-63
2023/08/12 08:25:27;;;;;;;4.97;4.50;;;;;;;26.56;91.48;96917.53;5028549;28;20215;-62
2023/08/12 08:27:54;;;;;;;4.63;4.22;;;;;;;26.84;90.14;96926.84;5017316;28;20220;-63
2023/08/12 08:30:22;;;;;;;4.88;4.47;;;;;;;26.99;87.46;96924.47;5017404;28;20212;-63
2023/08/12 08:32:49;;;;;;;6.60;4.00;;;;;;;27.32;89.76;96929.19;5024199;28;20203;-61
2023/08/12 08:35:15;;;;;;;4.97;4.65;;;;;;;27.24;86.71;96929.59;5029631;28;20204;-63
2023/08/12 08:37:42;;;;;;;4.75;4.38;;;;;;;27.09;85.95;96919.22;5024117;28;20212;-63
2023/08/12 08:40:09;;;;;;;4.88;4.35;;;;;;;27.02;86.06;96929.41;5028178;28;20254;-62
2023/08/12 08:42:36;;;;;;;4.70;4.30;;;;;;;26.94;87.41;96932.47;5024371;28;20236;-61
2023/08/12 08:45:03;;;;;;;5.43;4.53;;;;;;;26.81;88.33;96938.16;5019040;28;20209;-62
2023/08/12 08:47:31;;;;;;;7.50;4.85;;;;;;;26.72;89.18;96941.22;5017754;28;20216;-62
2023/08/12 08:49:58;;;;;;;4.93;4.50;;;;;;;26.65;88.97;96945.09;5033978;28;20538;-62
2023/08/12 08:52:25;;;;;;;4.45;4.13;;;;;;;26.49;87.21;96949.38;5034341;28;20645;-62
2023/08/12 08:54:51;;;;;;;4.40;4.03;;;;;;;26.67;88.35;96949.25;5018139;28;20216;-61
2023/08/12 08:57:19;;;;;;;4.47;4.07;;;;;;;26.90;89.15;96953.03;5021271;28;20219;-62
2023/08/12 08:59:45;;;;;;;4.03;3.72;;;;;;;26.91;81.83;96954.69;5026299;28;20656;-63
2023/08/12 09:02:17;;;;;;;4.38;4.00;;;;;;;26.63;81.95;96963.53;5036653;28;20231;-62
2023/08/12 09:04:46;;;;;;;4.38;3.70;;;;;;;26.26;85.10;96957.47;5043249;28;20605;-64
2023/08/12 09:07:14;;;;;;;4.75;3.90;;;;;;;26.08;87.71;96955.66;5043122;28;20206;-62
2023/08/12 09:09:45;;;;;;;4.50;4.15;;;;;;;25.87;94.21;96960.78;5042207;28;20231;-63
2023/08/12 09:12:13;;;;;;;4.20;3.88;;;;;;;25.61;100.00;96957.41;5043006;28;20195;-63
2023/08/12 09:14:39;;;;;;;4.70;4.30;;;;;;;25.48;99.99;96967.56;5043754;28;20200;-64
2023/08/12 09:17:07;;;;;;;4.35;3.95;;;;;;;25.33;100.00;96965.25;5043635;28;20207;-62
2023/08/12 09:19:33;;;;;;;4.00;3.67;;;;;;;25.22;100.00;96977.66;5042990;28;20207;-61
2023/08/12 09:22:04;;;;;;;4.78;4.45;;;;;;;25.08;100.00;96980.78;5042970;28;20200;-60
2023/08/12 09:24:32;;;;;;;4.25;3.95;;;;;;;24.98;100.00;96975.03;5042907;28;20216;-62
2023/08/12 09:26:58;;;;;;;5.10;4.70;;;;;;;24.87;100.00;96978.53;5042288;28;20203;-61
2023/08/12 09:29:26;;;;;;;5.97;5.47;;;;;;;24.75;100.00;96983.81;5042385;28;20200;-61
2023/08/12 09:31:53;;;;;;;6.47;5.85;;;;;;;24.68;100.00;96985.75;5042132;28;20215;-62
2023/08/12 09:34:19;;;;;;;4.60;4.30;;;;;;;24.60;100.00;96989.56;5042770;28;20286;-63
2023/08/12 09:36:46;;;;;;;5.10;4.65;;;;;;;24.54;100.00;96995.03;5041795;28;20200;-62
2023/08/12 09:39:13;;;;;;;4.75;4.45;;;;;;;24.46;100.00;97001.56;5042479;28;20195;-63
2023/08/12 09:41:40;;;;;;;4.82;4.50;;;;;;;24.34;100.00;97000.59;5042779;28;20211;-61
2023/08/12 09:44:06;;;;;;;4.53;4.18;;;;;;;24.33;100.00;96998.13;5041821;28;20246;-62
2023/08/12 09:46:33;;;;;;;4.93;4.53;;;;;;;24.33;100.00;97001.69;5042536;28;20546;-62
2023/08/12 09:49:00;;;;;;;4.53;4.22;;;;;;;24.48;100.00;96990.53;5041568;28;20202;-62
2023/08/12 09:51:27;;;;;;;4.97;4.50;;;;;;;24.76;100.00;96988.97;5042633;28;20210;-61
2023/08/12 09:53:53;;;;;;;6.63;4.43;;;;;;;25.05;100.00;96981.22;5042229;28;20208;-60
2023/08/12 09:56:24;;;;;;;4.43;4.07;;;;;;;25.13;97.62;96978.22;5042805;28;20222;-63
2023/08/12 09:58:51;;;;;;;4.22;3.80;;;;;;;25.18;95.84;96971.09;5042093;28;20263;-61
2023/08/12 10:01:20;;;;;;;3.90;3.53;;;;;;;25.23;96.55;96967.66;5041925;28;20619;-61
2023/08/12 10:03:50;;;;;;;4.40;4.00;;;;;;;25.28;97.14;96981.38;5040076;28;20249;-61
2023/08/12 10:06:17;;;;;;;4.10;3.80;;;;;;;25.24;92.07;96966.63;5041782;28;20212;-62
2023/08/12 10:08:44;;;;;;;4.07;3.78;;;;;;;25.22;91.66;96971.47;5041211;28;20272;-61
2023/08/12 10:11:11;;;;;;;4.15;3.85;;;;;;;25.22;92.84;96976.88;5042394;28;20225;-60
2023/08/12 10:13:40;;;;;;;3.42;3.13;;;;;;;25.16;93.24;96970.47;5041674;28;20207;-62
2023/08/12 10:16:06;;;;;;;3.63;3.33;;;;;;;25.10;89.46;96976.78;5041773;28;20543;-62
2023/08/12 10:18:33;;;;;;;4.22;3.40;;;;;;;25.08;90.41;96988.91;5044220;28;20195;-61
2023/08/12 10:21:00;;;;;;;3.30;3.00;;;;;;;25.06;90.40;96977.47;5042988;28;20214;-61
2023/08/12 10:23:27;;;;;;;4.38;2.72;;;;;;;25.06;89.97;96975.59;5041756;28;20222;-61
2023/08/12 10:25:55;;;;;;;3.83;3.38;;;;;;;25.09;89.96;96977.00;5041291;28;20207;-60
2023/08/12 10:28:21;;;;;;;4.05;2.88;;;;;;;25.09;88.45;96968.88;5041131;28;20674;-62
2023/08/12 10:30:50;;;;;;;3.25;2.92;;;;;;;25.21;88.02;96978.75;5041972;28;20215;-60
2023/08/12 10:33:18;;;;;;;3.33;3.13;;;;;;;25.48;89.21;96979.22;5040519;28;20192;-61
2023/08/12 10:35:45;;;;;;;4.03;2.95;;;;;;;25.73;89.49;96979.94;5041256;28;20199;-61
2023/08/12 10:38:14;;;;;;;3.05;2.80;;;;;;;25.99;86.62;96996.88;5040490;28;20666;-63
2023/08/12 10:40:41;;;;;;;3.60;2.90;;;;;;;26.00;87.31;97012.09;5041071;28;20203;-61
2023/08/12 10:43:07;;;;;;;3.25;2.95;;;;;;;25.91;81.70;97011.59;5041095;28;20227;-65
2023/08/12 10:45:44;;;;;;;7.05;3.53;;;;;;;25.80;81.47;97011.53;5040468;28;20635;-63
2023/08/12 10:48:18;;;;;;;5.45;3.25;;;;;;;25.70;81.93;97002.09;5041051;28;20203;-62
2023/08/12 10:50:46;;;;;;;3.03;2.83;;;;;;;25.67;83.52;96997.13;5045029;28;20227;-62
2023/08/12 10:53:29;;;;;;;3.22;3.03;;;;;;;25.56;85.18;96997.06;5051954;28;20208;-63
2023/08/12 10:55:57;;;;;;;4.32;3.08;;;;;;;25.48;85.66;97011.72;5043219;28;20227;-62
2023/08/12 10:58:35;;;;;;;3.30;3.10;;;;;;;25.32;88.17;97017.75;5040366;28;20652;-63
2023/08/12 11:01:02;;;;;;;4.38;3.50;;;;;;;25.17;88.15;97011.91;5041522;28;20226;-63
2023/08/12 11:03:34;;;;;;;4.15;3.63;;;;;;;25.01;90.49;97017.91;5039236;28;20289;-63
2023/08/12 11:06:02;;;;;;;4.55;4.10;;;;;;;24.85;92.21;97013.06;5040825;28;20203;-64
2023/08/12 11:08:29;;;;;;;6.40;3.20;;;;;;;24.67;94.70;97022.78;5055199;28;20255;-61
2023/08/12 11:10:57;;;;;;;4.38;3.67;;;;;;;24.54;100.00;97013.97;5054510;28;20208;-61
2023/08/12 11:13:24;;;;;;;3.75;3.05;;;;;;;24.27;100.00;97011.47;5046793;28;20195;-62
2023/08/12 11:15:50;;;;;;;4.90;4.40;;;;;;;24.09;100.00;97002.47;5040925;28;20538;-59
2023/08/12 11:18:18;;;;;;;6.40;4.00;;;;;;;23.90;100.00;96990.75;5040914;28;20746;-60
2023/08/12 11:20:48;;;;;;;5.50;4.70;;;;;;;23.78;100.00;96984.38;5040842;28;20219;-60
2023/08/12 11:23:13;;;;;;;6.20;4.55;;;;;;;23.59;100.00;96969.13;5040033;28;20218;-60
2023/08/12 11:25:41;;;;;;;5.15;4.28;;;;;;;23.51;100.00;96962.09;5040375;28;20207;-59
2023/08/12 11:28:08;;;;;;;4.30;3.90;;;;;;;23.35;100.00;96940.97;5040169;28;20203;-59